createdAt,value
2023-10-29T00:01:40.412Z,7.20
2023-10-29T00:04:09.039Z,3.50
2023-10-29T00:06:39.154Z,4.90
2023-10-29T00:09:07.851Z,3.70
2023-10-29T00:11:37.908Z,4.90
2023-10-29T00:14:08.912Z,4.60
2023-10-29T00:16:40.147Z,3.60
2023-10-29T00:19:08.119Z,4.50
2023-10-29T00:21:40.189Z,3.60
2023-10-29T00:24:09.185Z,4.60
2023-10-29T00:26:43.009Z,4.40
2023-10-29T00:29:10.752Z,4.30
2023-10-29T00:31:46.613Z,5.50
2023-10-29T00:34:18.202Z,4.70
2023-10-29T00:36:46.233Z,6.40
2023-10-29T00:39:17.373Z,5.00
2023-10-29T00:41:49.093Z,4.10
2023-10-29T00:44:18.230Z,5.80
2023-10-29T00:46:46.139Z,4.40
2023-10-29T00:49:15.804Z,3.30
2023-10-29T00:51:45.832Z,3.80
2023-10-29T00:54:14.016Z,3.80
2023-10-29T00:56:42.094Z,3.90
2023-10-29T00:59:13.457Z,5.60
2023-10-29T01:01:41.503Z,3.90
2023-10-29T01:04:10.123Z,3.40
2023-10-29T01:06:42.275Z,3.80
2023-10-29T01:09:14.485Z,4.20
2023-10-29T01:11:42.620Z,3.90
2023-10-29T01:14:15.016Z,4.70
2023-10-29T01:16:43.875Z,3.60
2023-10-29T01:19:12.415Z,5.00
2023-10-29T01:21:40.728Z,4.50
2023-10-29T01:24:10.154Z,5.40
2023-10-29T01:26:38.132Z,3.80
2023-10-29T01:29:06.382Z,5.00
2023-10-29T01:31:34.347Z,5.00
2023-10-29T01:34:02.256Z,5.20
2023-10-29T01:36:36.035Z,6.50
2023-10-29T01:39:06.047Z,7.90
2023-10-29T01:41:36.624Z,8.50
2023-10-29T01:44:05.561Z,7.00
2023-10-29T01:46:36.395Z,6.60
2023-10-29T01:49:10.811Z,6.10
2023-10-29T01:51:41.521Z,7.10
2023-10-29T01:54:09.420Z,4.70
2023-10-29T01:56:40.393Z,4.90
2023-10-29T01:59:08.224Z,4.10
2023-10-29T02:01:36.341Z,5.30
2023-10-29T02:04:14.195Z,6.20
2023-10-29T02:06:42.189Z,5.00
2023-10-29T02:09:12.894Z,4.20
2023-10-29T02:11:43.192Z,4.40
2023-10-29T02:14:11.901Z,5.10
2023-10-29T02:16:39.898Z,4.60
2023-10-29T02:19:08.784Z,4.50
2023-10-29T02:21:39.148Z,6.20
2023-10-29T02:24:11.378Z,5.70
2023-10-29T02:26:39.373Z,6.30
2023-10-29T02:29:07.217Z,12.60
2023-10-29T02:31:41.593Z,6.30
2023-10-29T02:34:09.541Z,4.80
2023-10-29T02:36:40.034Z,5.20
2023-10-29T02:39:10.160Z,5.50
2023-10-29T02:41:38.364Z,5.50
2023-10-29T02:44:15.410Z,5.40
2023-10-29T02:46:43.379Z,6.30
2023-10-29T02:49:13.730Z,9.70
2023-10-29T02:51:41.677Z,6.80
2023-10-29T02:54:13.264Z,6.80
2023-10-29T02:56:42.185Z,6.40
2023-10-29T02:59:11.323Z,7.00
2023-10-29T03:01:39.221Z,9.90
2023-10-29T03:04:07.954Z,6.00
2023-10-29T03:06:40.808Z,6.20
2023-10-29T03:09:13.358Z,7.00
2023-10-29T03:11:41.889Z,7.10
2023-10-29T03:14:10.015Z,4.80
2023-10-29T03:16:44.735Z,4.20
2023-10-29T03:19:15.794Z,5.00
2023-10-29T03:21:44.368Z,5.50
2023-10-29T03:24:17.444Z,5.40
2023-10-29T03:26:46.129Z,4.20
2023-10-29T03:29:14.300Z,5.80
2023-10-29T03:31:42.750Z,5.70
2023-10-29T03:34:12.824Z,6.30
2023-10-29T03:36:43.750Z,7.30
2023-10-29T03:39:11.656Z,6.10
2023-10-29T03:41:39.503Z,6.10
2023-10-29T03:44:08.429Z,7.70
2023-10-29T03:46:38.602Z,8.20
2023-10-29T03:49:17.110Z,9.10
2023-10-29T03:51:49.894Z,7.90
2023-10-29T03:54:17.782Z,8.70
2023-10-29T03:56:45.780Z,7.90
2023-10-29T03:59:13.800Z,8.30
2023-10-29T04:01:41.699Z,6.70
2023-10-29T04:04:12.884Z,8.30
2023-10-29T04:06:43.974Z,6.90
2023-10-29T04:09:11.927Z,7.70
2023-10-29T04:11:40.360Z,7.30
2023-10-29T04:14:08.690Z,6.70
2023-10-29T04:16:42.183Z,7.00
2023-10-29T04:19:16.948Z,6.00
2023-10-29T04:21:47.753Z,6.60
2023-10-29T04:24:15.674Z,7.40
2023-10-29T04:26:56.684Z,8.80
2023-10-29T04:29:27.151Z,9.80
2023-10-29T04:32:06.677Z,10.90
2023-10-29T04:34:40.887Z,10.00
2023-10-29T04:37:19.506Z,9.50
2023-10-29T04:39:52.604Z,7.70
2023-10-29T04:44:49.404Z,7.70
2023-10-29T04:47:18.474Z,10.20
2023-10-29T04:49:46.417Z,8.20
2023-10-29T04:52:14.723Z,8.40
2023-10-29T04:54:52.078Z,6.90
2023-10-29T04:57:23.029Z,8.20
2023-10-29T05:00:01.398Z,7.50
2023-10-29T05:02:33.099Z,5.70
2023-10-29T05:05:01.270Z,6.80
2023-10-29T05:07:36.720Z,5.60
2023-10-29T05:10:06.307Z,6.40
2023-10-29T05:12:35.317Z,6.30
2023-10-29T05:15:03.726Z,6.00
2023-10-29T05:17:31.865Z,8.10
2023-10-29T05:19:59.844Z,8.00
2023-10-29T05:22:27.617Z,6.40
2023-10-29T05:25:03.164Z,7.10
2023-10-29T05:27:31.437Z,6.80
2023-10-29T05:30:01.788Z,7.40
2023-10-29T05:32:34.793Z,6.90
2023-10-29T05:35:06.272Z,7.50
2023-10-29T05:37:39.413Z,9.40
2023-10-29T05:42:36.179Z,7.20
2023-10-29T05:45:08.354Z,8.30
2023-10-29T05:47:38.984Z,8.10
2023-10-29T05:50:10.143Z,6.20
2023-10-29T05:52:38.269Z,8.50
2023-10-29T05:57:38.317Z,6.40
2023-10-29T06:00:07.343Z,6.60
2023-10-29T06:02:40.913Z,7.60
2023-10-29T06:05:09.668Z,6.90
2023-10-29T06:07:39.111Z,7.50
2023-10-29T06:10:09.272Z,7.80
2023-10-29T06:12:37.185Z,12.90
2023-10-29T06:15:06.350Z,17.00
2023-10-29T06:17:35.690Z,8.50
2023-10-29T06:20:06.317Z,7.60
2023-10-29T06:22:34.390Z,8.10
2023-10-29T06:25:06.264Z,7.70
2023-10-29T06:27:34.320Z,7.10
2023-10-29T06:30:02.809Z,6.30
2023-10-29T06:32:31.064Z,6.70
2023-10-29T06:34:59.568Z,8.20
2023-10-29T06:37:27.478Z,5.70
2023-10-29T06:39:57.051Z,6.00
2023-10-29T06:42:24.908Z,6.30
2023-10-29T06:44:58.879Z,6.00
2023-10-29T06:47:27.126Z,6.40
2023-10-29T06:49:58.251Z,6.50
2023-10-29T06:52:26.125Z,8.20
2023-10-29T06:54:55.000Z,5.70
2023-10-29T06:57:23.513Z,6.50
2023-10-29T06:59:52.093Z,5.80
2023-10-29T07:02:20.299Z,5.50
2023-10-29T07:04:48.282Z,4.90
2023-10-29T07:07:18.276Z,5.60
2023-10-29T07:09:49.812Z,6.10
2023-10-29T07:12:36.492Z,6.60
2023-10-29T07:15:05.597Z,5.30
2023-10-29T07:17:36.593Z,5.50
2023-10-29T07:20:15.683Z,5.30
2023-10-29T07:23:12.555Z,6.80
2023-10-29T07:25:46.900Z,5.80
2023-10-29T07:28:20.634Z,6.10
2023-10-29T07:30:50.237Z,7.10
2023-10-29T07:33:18.373Z,5.10
2023-10-29T07:35:46.821Z,6.00
2023-10-29T07:38:16.921Z,6.40
2023-10-29T07:40:53.009Z,4.50
2023-10-29T07:43:26.886Z,5.40
2023-10-29T07:45:57.470Z,5.60
2023-10-29T07:48:34.797Z,4.60
2023-10-29T07:51:06.096Z,4.80
2023-10-29T07:53:47.301Z,4.30
2023-10-29T07:56:22.189Z,5.00
2023-10-29T07:59:06.077Z,5.30
2023-10-29T08:01:34.182Z,5.50
2023-10-29T08:04:02.912Z,4.40
2023-10-29T08:06:36.376Z,5.50
2023-10-29T08:09:04.265Z,4.10
2023-10-29T08:11:32.638Z,4.80
2023-10-29T08:14:04.168Z,4.40
2023-10-29T08:16:39.310Z,5.40
2023-10-29T08:19:07.932Z,5.80
2023-10-29T08:21:38.633Z,4.80
2023-10-29T08:24:08.983Z,4.80
2023-10-29T08:26:37.609Z,4.20
2023-10-29T08:29:05.608Z,5.40
2023-10-29T08:31:37.843Z,4.70
2023-10-29T08:34:08.113Z,3.90
2023-10-29T08:36:36.384Z,7.60
2023-10-29T08:39:04.932Z,4.90
2023-10-29T08:41:33.450Z,4.30
2023-10-29T08:44:01.425Z,6.10
2023-10-29T08:46:30.214Z,3.90
2023-10-29T08:48:58.696Z,4.30
2023-10-29T08:51:26.761Z,4.90
2023-10-29T08:53:58.952Z,4.00
2023-10-29T08:56:26.896Z,4.80
2023-10-29T08:58:54.765Z,4.00
2023-10-29T09:01:24.225Z,3.70
2023-10-29T09:04:14.058Z,3.60
2023-10-29T09:06:42.840Z,4.60
2023-10-29T09:09:14.510Z,3.90
2023-10-29T09:11:56.118Z,4.40
2023-10-29T09:14:29.407Z,3.70
2023-10-29T09:16:59.648Z,3.80
2023-10-29T09:19:29.301Z,3.90
2023-10-29T09:21:57.506Z,3.50
2023-10-29T09:24:26.871Z,3.40
2023-10-29T09:27:02.379Z,3.90
2023-10-29T09:29:32.783Z,3.70
2023-10-29T09:32:05.447Z,4.80
2023-10-29T09:34:34.436Z,4.30
2023-10-29T09:37:02.180Z,3.90
2023-10-29T09:39:30.046Z,3.20
2023-10-29T09:42:23.243Z,4.60
2023-10-29T09:44:51.530Z,3.00
2023-10-29T09:47:25.389Z,4.40
2023-10-29T09:49:53.300Z,4.20
2023-10-29T09:52:32.000Z,5.20
2023-10-29T09:55:00.133Z,7.00
2023-10-29T09:57:28.641Z,4.20
2023-10-29T10:00:08.664Z,3.70
2023-10-29T10:03:08.923Z,4.10
2023-10-29T10:05:37.404Z,5.00
2023-10-29T10:08:11.059Z,3.90
2023-10-29T10:10:39.878Z,4.40
2023-10-29T10:13:08.374Z,3.80
2023-10-29T10:15:37.063Z,4.70
2023-10-29T10:18:06.173Z,4.30
2023-10-29T10:20:37.606Z,3.70
2023-10-29T10:23:09.712Z,4.60
2023-10-29T10:25:47.825Z,4.80
2023-10-29T10:28:21.843Z,3.70
2023-10-29T10:31:24.683Z,4.30
2023-10-29T10:33:53.165Z,3.80
2023-10-29T10:36:50.626Z,5.30
2023-10-29T10:39:22.733Z,3.70
2023-10-29T10:41:59.158Z,4.10
2023-10-29T10:44:33.414Z,3.90
2023-10-29T10:47:01.703Z,4.80
2023-10-29T10:49:33.252Z,14.80
2023-10-29T10:52:03.262Z,12.00
2023-10-29T10:54:34.610Z,4.60
2023-10-29T10:57:02.422Z,4.90
2023-10-29T10:59:30.393Z,10.50
2023-10-29T11:01:58.531Z,8.40
2023-10-29T11:04:28.169Z,9.00
2023-10-29T11:06:56.434Z,5.00
2023-10-29T11:09:25.201Z,5.50
2023-10-29T11:11:58.147Z,3.70
2023-10-29T11:14:27.183Z,3.30
2023-10-29T11:17:11.573Z,5.70
2023-10-29T11:19:48.821Z,3.40
2023-10-29T11:22:40.992Z,7.00
2023-10-29T11:25:10.241Z,5.30
2023-10-29T11:28:28.406Z,3.90
2023-10-29T11:31:19.000Z,4.30
2023-10-29T11:34:12.621Z,4.90
2023-10-29T11:36:44.546Z,5.00
2023-10-29T11:39:16.482Z,8.00
2023-10-29T11:41:49.888Z,14.00
2023-10-29T11:47:05.512Z,9.20
2023-10-29T11:49:43.007Z,6.20
2023-10-29T11:52:11.605Z,8.80
2023-10-29T11:54:42.831Z,7.50
2023-10-29T11:57:11.433Z,8.60
2023-10-29T11:59:56.345Z,9.30
2023-10-29T12:02:25.590Z,11.80
2023-10-29T12:05:04.517Z,7.00
2023-10-29T12:07:34.404Z,5.90
2023-10-29T12:10:08.177Z,10.40
2023-10-29T12:12:36.218Z,10.80
2023-10-29T12:15:08.877Z,12.90
2023-10-29T12:17:37.273Z,19.80
2023-10-29T12:20:05.568Z,17.90
2023-10-29T12:22:33.464Z,16.70
2023-10-29T12:25:04.394Z,16.40
2023-10-29T12:27:32.673Z,10.20
2023-10-29T12:30:00.490Z,6.70
2023-10-29T12:32:29.219Z,4.90
2023-10-29T12:34:58.479Z,5.10
2023-10-29T12:37:30.649Z,3.70
2023-10-29T12:40:01.862Z,4.50
2023-10-29T12:42:55.696Z,4.90
2023-10-29T12:45:28.355Z,4.40
2023-10-29T12:48:17.747Z,6.00
2023-10-29T12:50:51.553Z,5.20
2023-10-29T12:53:32.735Z,4.70
2023-10-29T12:56:01.323Z,7.20
2023-10-29T12:58:32.164Z,4.20
2023-10-29T13:01:01.680Z,4.30
2023-10-29T13:03:29.795Z,4.60
2023-10-29T13:05:57.766Z,5.10
2023-10-29T13:08:26.371Z,4.30
2023-10-29T13:10:54.833Z,4.30
2023-10-29T13:13:25.611Z,4.60
2023-10-29T13:15:53.445Z,4.20
2023-10-29T13:18:21.427Z,3.90
2023-10-29T13:21:03.461Z,4.40
2023-10-29T13:23:31.307Z,3.90
2023-10-29T13:25:58.988Z,5.40
2023-10-29T13:28:27.104Z,5.20
2023-10-29T13:30:57.316Z,5.40
2023-10-29T13:33:25.686Z,5.10
2023-10-29T13:35:53.623Z,6.50
2023-10-29T13:38:21.546Z,5.50
2023-10-29T13:40:52.708Z,5.60
2023-10-29T13:43:20.416Z,6.30
2023-10-29T13:46:02.660Z,6.50
2023-10-29T13:48:30.900Z,6.00
2023-10-29T13:51:08.369Z,5.80
2023-10-29T13:53:36.129Z,6.50
2023-10-29T13:56:08.754Z,5.90
2023-10-29T13:58:36.791Z,6.20
2023-10-29T14:01:04.837Z,7.60
2023-10-29T14:03:32.653Z,7.00
2023-10-29T14:06:00.543Z,6.50
2023-10-29T14:08:28.452Z,5.10
2023-10-29T14:10:56.345Z,4.90
2023-10-29T14:13:24.089Z,5.30
2023-10-29T14:16:04.796Z,5.20
2023-10-29T14:18:32.694Z,5.30
2023-10-29T14:21:00.902Z,5.20
2023-10-29T14:23:30.875Z,5.10
2023-10-29T14:25:58.789Z,4.90
2023-10-29T14:28:26.522Z,5.10
2023-10-29T14:30:54.368Z,4.50
2023-10-29T14:33:23.220Z,4.40
2023-10-29T14:35:57.839Z,4.20
2023-10-29T14:38:25.773Z,4.60
2023-10-29T14:40:54.882Z,4.90
2023-10-29T14:43:23.302Z,4.70
2023-10-29T14:45:52.518Z,4.50
2023-10-29T14:48:21.094Z,4.90
2023-10-29T14:50:49.524Z,4.70
2023-10-29T14:53:17.576Z,5.40
2023-10-29T14:55:48.590Z,7.50
2023-10-29T14:58:16.710Z,5.00
2023-10-29T15:00:45.235Z,5.40
2023-10-29T15:03:13.752Z,6.00
2023-10-29T15:05:42.474Z,4.40
2023-10-29T15:08:12.639Z,6.50
2023-10-29T15:10:40.662Z,6.30
2023-10-29T15:13:11.523Z,8.20
2023-10-29T15:15:42.518Z,65.50
2023-10-29T15:18:13.244Z,69.30
2023-10-29T15:20:54.547Z,20.90
2023-10-29T15:23:26.311Z,32.40
2023-10-29T15:25:58.873Z,54.30
2023-10-29T15:28:27.454Z,51.50
2023-10-29T15:30:55.460Z,44.10
2023-10-29T15:33:25.650Z,54.70
2023-10-29T15:36:06.199Z,45.50
2023-10-29T15:39:03.874Z,44.60
2023-10-29T15:41:35.217Z,40.90
2023-10-29T15:44:03.091Z,38.10
2023-10-29T15:46:36.936Z,42.60
2023-10-29T15:49:05.156Z,66.40
2023-10-29T15:51:38.521Z,89.00
2023-10-29T15:54:28.850Z,96.40
2023-10-29T15:56:59.024Z,101.50
2023-10-29T15:59:34.184Z,84.90
2023-10-29T16:02:02.732Z,78.30
2023-10-29T16:04:30.808Z,103.30
2023-10-29T16:06:59.161Z,93.40
2023-10-29T16:09:30.325Z,54.10
2023-10-29T16:12:17.375Z,61.70
2023-10-29T16:14:53.171Z,56.40
2023-10-29T16:17:21.157Z,56.90
2023-10-29T16:19:50.274Z,49.90
2023-10-29T16:22:24.093Z,52.50
2023-10-29T16:24:53.556Z,27.20
2023-10-29T16:27:21.538Z,24.30
2023-10-29T16:29:57.058Z,29.90
2023-10-29T16:32:28.507Z,46.50
2023-10-29T16:35:01.378Z,53.20
2023-10-29T16:37:35.136Z,40.50
2023-10-29T16:40:10.951Z,56.60
2023-10-29T16:42:40.400Z,53.10
2023-10-29T16:45:11.133Z,39.90
2023-10-29T16:47:50.230Z,42.80
2023-10-29T16:50:22.957Z,37.70
2023-10-29T16:55:24.186Z,57.70
2023-10-29T16:57:54.362Z,80.10
2023-10-29T17:00:23.412Z,106.50
2023-10-29T17:02:51.452Z,146.60
2023-10-29T17:05:24.750Z,128.90
2023-10-29T17:10:21.736Z,109.50
2023-10-29T17:12:56.372Z,94.50
2023-10-29T17:15:27.587Z,94.90
2023-10-29T17:17:55.729Z,92.80
2023-10-29T17:20:23.964Z,73.20
2023-10-29T17:22:57.577Z,56.70
2023-10-29T17:25:32.680Z,63.40
2023-10-29T17:28:02.797Z,59.00
2023-10-29T17:30:34.648Z,61.50
2023-10-29T17:33:04.820Z,50.00
2023-10-29T17:35:32.877Z,40.40
2023-10-29T17:38:03.104Z,34.10
2023-10-29T17:40:33.748Z,39.30
2023-10-29T17:43:10.884Z,42.00
2023-10-29T17:45:49.279Z,38.20
2023-10-29T17:48:17.301Z,70.70
2023-10-29T17:50:46.485Z,45.10
2023-10-29T17:53:15.374Z,38.10
2023-10-29T17:55:55.029Z,39.40
2023-10-29T17:58:25.056Z,36.60
2023-10-29T18:00:53.088Z,32.30
2023-10-29T18:03:24.165Z,38.80
2023-10-29T18:05:55.145Z,43.90
2023-10-29T18:08:31.831Z,27.90
2023-10-29T18:11:01.539Z,30.90
2023-10-29T18:15:17.355Z,31.40
2023-10-29T18:17:59.101Z,23.20
2023-10-29T18:20:27.899Z,39.50
2023-10-29T18:23:00.494Z,27.80
2023-10-29T18:25:34.691Z,28.20
2023-10-29T18:28:06.244Z,26.30
2023-10-29T18:30:35.671Z,23.80
2023-10-29T18:33:06.894Z,25.50
2023-10-29T18:35:41.444Z,33.00
2023-10-29T18:38:11.953Z,29.20
2023-10-29T18:40:41.251Z,27.40
2023-10-29T18:43:09.941Z,25.40
2023-10-29T18:45:43.240Z,23.20
2023-10-29T18:48:16.739Z,35.00
2023-10-29T18:50:46.248Z,44.30
2023-10-29T18:53:19.520Z,37.20
2023-10-29T18:55:47.685Z,31.00
2023-10-29T18:58:17.141Z,27.60
2023-10-29T19:00:46.689Z,26.50
2023-10-29T19:03:24.346Z,24.20
2023-10-29T19:05:53.029Z,24.80
2023-10-29T19:08:26.304Z,24.40
2023-10-29T19:10:54.889Z,25.40
2023-10-29T19:13:25.573Z,26.20
2023-10-29T19:16:01.202Z,23.50
2023-10-29T19:18:30.080Z,22.90
2023-10-29T19:21:03.408Z,24.40
2023-10-29T19:23:41.188Z,27.00
2023-10-29T19:26:14.453Z,45.50
2023-10-29T19:28:45.883Z,38.90
2023-10-29T19:33:45.736Z,27.80
2023-10-29T19:36:19.159Z,29.10
2023-10-29T19:38:54.825Z,26.40
2023-10-29T19:41:35.968Z,28.10
2023-10-29T19:44:04.086Z,24.70
2023-10-29T19:46:38.047Z,24.30
2023-10-29T19:49:14.206Z,25.60
2023-10-29T19:51:50.882Z,25.60
2023-10-29T19:54:19.479Z,23.00
2023-10-29T19:56:51.426Z,25.60
2023-10-29T19:59:21.960Z,29.40
2023-10-29T20:01:58.249Z,26.70
2023-10-29T20:04:28.298Z,26.40
2023-10-29T20:06:58.569Z,23.60
2023-10-29T20:09:33.022Z,25.90
2023-10-29T20:12:05.931Z,27.20
2023-10-29T20:14:37.872Z,28.30
2023-10-29T20:17:14.486Z,24.30
2023-10-29T20:19:49.198Z,26.20
2023-10-29T20:22:29.596Z,28.00
2023-10-29T20:25:01.562Z,27.00
2023-10-29T20:27:44.277Z,26.10
2023-10-29T20:30:21.837Z,27.80
2023-10-29T20:32:58.181Z,27.50
2023-10-29T20:35:35.132Z,27.90
2023-10-29T20:38:11.244Z,28.40
2023-10-29T20:40:54.825Z,26.40
2023-10-29T20:43:30.500Z,31.10
2023-10-29T20:46:00.017Z,30.20
2023-10-29T20:48:31.768Z,27.30
2023-10-29T20:51:00.198Z,32.00
2023-10-29T20:53:30.095Z,32.30
2023-10-29T20:55:58.206Z,33.60
2023-10-29T20:58:26.409Z,29.10
2023-10-29T21:00:57.335Z,29.90
2023-10-29T21:03:26.427Z,30.90
2023-10-29T21:06:01.357Z,30.00
2023-10-29T21:08:41.812Z,35.60
2023-10-29T21:11:18.595Z,37.90
2023-10-29T21:13:47.683Z,37.00
2023-10-29T21:16:17.111Z,35.40
2023-10-29T21:18:46.374Z,33.90
2023-10-29T21:21:19.616Z,35.30
2023-10-29T21:26:37.985Z,34.90
2023-10-29T21:29:06.222Z,32.70
2023-10-29T21:31:51.483Z,35.20
2023-10-29T21:34:30.220Z,36.10
2023-10-29T21:37:16.544Z,33.00
2023-10-29T21:39:50.796Z,39.00
2023-10-29T21:42:24.714Z,36.10
2023-10-29T21:44:58.606Z,36.50
2023-10-29T21:47:28.042Z,36.30
2023-10-29T21:50:00.555Z,35.70
2023-10-29T21:52:34.384Z,32.50
2023-10-29T21:55:14.132Z,32.90
2023-10-29T21:57:51.172Z,32.50
2023-10-29T22:00:24.081Z,33.60
2023-10-29T22:02:52.294Z,34.70
2023-10-29T22:05:26.675Z,32.60
2023-10-29T22:07:55.542Z,34.10
2023-10-29T22:10:38.258Z,37.20
2023-10-29T22:13:17.633Z,33.40
2023-10-29T22:15:52.836Z,34.00
2023-10-29T22:18:23.637Z,34.60
2023-10-29T22:20:58.917Z,35.00
2023-10-29T22:23:32.721Z,34.80
2023-10-29T22:26:12.378Z,38.20
2023-10-29T22:28:40.920Z,35.60
2023-10-29T22:31:17.921Z,28.80
2023-10-29T22:33:49.384Z,32.00
2023-10-29T22:36:25.121Z,33.00
2023-10-29T22:41:30.500Z,29.90
2023-10-29T22:44:04.108Z,34.00
2023-10-29T22:46:32.833Z,30.60
2023-10-29T22:49:03.724Z,30.80
2023-10-29T22:51:36.857Z,32.20
